createdAt,value
2022-08-07T00:00:18.533Z,14.02
2022-08-07T00:02:35.621Z,13.98
2022-08-07T00:02:37.060Z,13.94
2022-08-07T00:03:16.348Z,13.89
2022-08-07T00:04:15.788Z,13.88
2022-08-07T00:05:15.339Z,13.80
2022-08-07T00:06:15.312Z,13.74
2022-08-07T00:07:15.912Z,13.74
2022-08-07T00:08:15.335Z,13.76
2022-08-07T00:09:16.712Z,13.71
2022-08-07T00:10:26.837Z,13.67
2022-08-07T00:11:19.864Z,13.59
2022-08-07T00:12:19.252Z,13.51
2022-08-07T00:13:23.924Z,13.33
2022-08-07T00:14:16.232Z,13.22
2022-08-07T00:15:15.200Z,13.15
2022-08-07T00:16:17.494Z,13.07
2022-08-07T00:17:16.173Z,13.03
2022-08-07T00:18:19.308Z,12.99
2022-08-07T00:19:21.520Z,12.97
2022-08-07T00:20:16.162Z,13.02
2022-08-07T00:21:56.369Z,13.12
2022-08-07T00:22:24.718Z,13.25
2022-08-07T00:23:17.053Z,13.41
2022-08-07T00:24:15.093Z,13.52
2022-08-07T00:25:17.276Z,13.63
2022-08-07T00:26:31.298Z,13.80
2022-08-07T00:27:16.050Z,13.94
2022-08-07T00:28:15.490Z,13.98
2022-08-07T00:29:15.021Z,14.01
2022-08-07T00:30:26.595Z,14.06
2022-08-07T00:31:16.667Z,14.16
2022-08-07T00:32:14.974Z,14.25
2022-08-07T00:33:14.995Z,14.27
2022-08-07T00:34:14.963Z,14.28
2022-08-07T00:35:14.944Z,14.29
2022-08-07T00:36:14.961Z,14.38
2022-08-07T00:37:14.913Z,14.44
2022-08-07T00:38:14.904Z,14.47
2022-08-07T00:39:17.001Z,14.42
2022-08-07T00:40:14.889Z,14.39
2022-08-07T00:41:15.889Z,14.43
2022-08-07T00:42:14.902Z,14.38
2022-08-07T00:43:59.664Z,14.38
2022-08-07T00:44:15.831Z,14.37
2022-08-07T00:45:16.448Z,14.42
2022-08-07T00:46:14.795Z,14.46
2022-08-07T00:47:16.114Z,14.50
2022-08-07T00:48:15.887Z,14.43
2022-08-07T00:50:16.746Z,14.28
2022-08-07T00:50:19.404Z,14.25
2022-08-07T00:51:15.741Z,14.13
2022-08-07T00:52:14.716Z,13.99
2022-08-07T00:53:14.706Z,13.99
2022-08-07T00:54:14.695Z,14.07
2022-08-07T00:55:17.419Z,14.09
2022-08-07T00:56:15.855Z,14.04
2022-08-07T00:57:14.653Z,14.06
2022-08-07T01:00:36.763Z,14.13
2022-08-07T01:01:44.057Z,14.16
2022-08-07T01:02:37.736Z,14.19
2022-08-07T01:03:55.639Z,14.16
2022-08-07T01:04:43.511Z,14.14
2022-08-07T01:05:37.695Z,14.13
2022-08-07T01:06:36.674Z,14.06
2022-08-07T01:07:36.693Z,14.04
2022-08-07T01:08:36.642Z,14.06
2022-08-07T01:10:06.350Z,14.06
2022-08-07T01:10:37.622Z,14.07
2022-08-07T01:12:10.025Z,14.07
2022-08-07T01:12:37.624Z,14.12
2022-08-07T01:13:36.573Z,14.12
2022-08-07T01:14:37.178Z,14.12
2022-08-07T01:16:00.808Z,13.98
2022-08-07T01:16:37.557Z,13.96
2022-08-07T01:17:36.536Z,13.96
2022-08-07T01:18:36.534Z,13.94
2022-08-07T01:19:38.531Z,13.94
2022-08-07T01:20:43.263Z,13.99
2022-08-07T01:21:37.494Z,14.04
2022-08-07T01:22:36.476Z,14.02
2022-08-07T01:23:40.084Z,14.04
2022-08-07T01:24:37.466Z,14.09
2022-08-07T01:25:55.176Z,14.09
2022-08-07T01:26:37.404Z,14.12
2022-08-07T01:27:36.928Z,14.13
2022-08-07T01:28:36.393Z,14.13
2022-08-07T01:29:36.406Z,14.09
2022-08-07T01:30:36.376Z,14.02
2022-08-07T01:31:42.286Z,13.95
2022-08-07T01:32:37.364Z,13.92
2022-08-07T01:33:55.701Z,13.87
2022-08-07T01:34:37.363Z,13.84
2022-08-07T01:35:36.994Z,13.81
2022-08-07T01:36:40.711Z,13.80
2022-08-07T01:37:36.291Z,13.73
2022-08-07T01:38:36.266Z,13.58
2022-08-07T01:39:40.615Z,13.43
2022-08-07T01:40:37.257Z,13.43
2022-08-07T01:42:40.179Z,13.47
2022-08-07T01:43:34.734Z,13.25
2022-08-07T01:44:32.012Z,13.14
2022-08-07T01:45:36.222Z,13.09
2022-08-07T01:46:31.962Z,13.04
2022-08-07T01:48:18.499Z,13.09
2022-08-07T01:48:32.278Z,13.11
2022-08-07T01:49:31.990Z,13.00
2022-08-07T01:50:30.932Z,12.92
2022-08-07T01:52:04.035Z,12.99
2022-08-07T01:52:31.905Z,12.89
2022-08-07T01:54:09.642Z,12.84
2022-08-07T01:54:32.864Z,12.85
2022-08-07T01:55:33.400Z,12.92
2022-08-07T01:56:30.845Z,12.93
2022-08-07T01:57:30.823Z,12.93
2022-08-07T01:58:33.167Z,12.97
2022-08-07T01:59:31.520Z,13.00
2022-08-07T02:00:30.784Z,12.93
2022-08-07T02:01:59.697Z,12.87
2022-08-07T02:03:12.285Z,12.81
2022-08-07T02:03:42.885Z,12.74
2022-08-07T02:04:31.793Z,12.67
2022-08-07T02:05:47.768Z,12.60
2022-08-07T02:06:32.530Z,12.59
2022-08-07T02:07:44.679Z,12.57
2022-08-07T02:08:31.723Z,12.51
2022-08-07T02:09:33.850Z,12.48
2022-08-07T02:10:31.663Z,12.42
2022-08-07T02:12:04.306Z,12.39
2022-08-07T02:12:31.615Z,12.46
2022-08-07T02:13:56.358Z,12.57
2022-08-07T02:14:40.595Z,12.56
2022-08-07T02:15:31.575Z,12.48
2022-08-07T02:16:33.691Z,12.37
2022-08-07T02:17:31.616Z,12.29
2022-08-07T02:18:30.566Z,12.19
2022-08-07T02:20:04.403Z,12.19
2022-08-07T02:20:31.546Z,12.11
2022-08-07T02:21:55.849Z,12.01
2022-08-07T02:22:31.507Z,11.89
2022-08-07T02:23:30.478Z,11.82
2022-08-07T02:24:31.474Z,11.77
2022-08-07T02:26:10.261Z,11.72
2022-08-07T02:26:34.356Z,11.77
2022-08-07T02:27:34.260Z,11.72
2022-08-07T02:28:30.437Z,11.67
2022-08-07T02:29:30.495Z,11.67
2022-08-07T02:30:30.385Z,11.74
2022-08-07T02:31:30.372Z,11.78
2022-08-07T02:32:30.399Z,11.85
2022-08-07T02:33:42.008Z,11.90
2022-08-07T02:34:31.349Z,11.96
2022-08-07T02:36:30.096Z,11.96
2022-08-07T02:36:33.046Z,11.89
2022-08-07T02:37:34.234Z,11.83
2022-08-07T02:38:31.853Z,11.78
2022-08-07T02:39:43.870Z,11.71
2022-08-07T02:40:35.001Z,11.62
2022-08-07T02:41:33.456Z,11.56
2022-08-07T02:42:31.233Z,11.54
2022-08-07T02:43:30.277Z,11.53
2022-08-07T02:44:34.769Z,11.49
2022-08-07T02:46:00.593Z,11.50
2022-08-07T02:46:31.216Z,11.47
2022-08-07T02:47:49.030Z,11.49
2022-08-07T02:48:31.158Z,11.56
2022-08-07T02:49:59.060Z,11.67
2022-08-07T02:50:31.127Z,11.80
2022-08-07T02:51:49.742Z,11.90
2022-08-07T02:52:32.396Z,11.97
2022-08-07T02:53:30.079Z,12.02
2022-08-07T02:54:30.071Z,12.01
2022-08-07T02:56:03.327Z,12.05
2022-08-07T02:56:31.376Z,12.11
2022-08-07T02:57:34.078Z,12.11
2022-08-07T02:58:33.306Z,12.09
2022-08-07T02:59:30.010Z,12.01
2022-08-07T03:00:30.217Z,11.83
2022-08-07T03:01:35.946Z,11.70
2022-08-07T03:02:30.978Z,11.64
2022-08-07T03:03:49.308Z,11.61
2022-08-07T03:04:30.958Z,11.57
2022-08-07T03:05:35.683Z,11.59
2022-08-07T03:06:34.686Z,11.64
2022-08-07T03:07:43.206Z,11.71
2022-08-07T03:08:30.908Z,11.75
2022-08-07T03:09:43.151Z,11.74
2022-08-07T03:10:30.858Z,11.75
2022-08-07T03:11:32.838Z,11.72
2022-08-07T03:12:31.303Z,11.67
2022-08-07T03:13:29.823Z,11.57
2022-08-07T03:14:30.829Z,11.43
2022-08-07T03:15:47.846Z,11.43
2022-08-07T03:16:30.791Z,11.52
2022-08-07T03:17:30.002Z,11.59
2022-08-07T03:18:34.603Z,11.57
2022-08-07T03:19:36.798Z,11.62
2022-08-07T03:20:30.748Z,11.62
2022-08-07T03:21:32.963Z,11.59
2022-08-07T03:22:30.441Z,11.62
2022-08-07T03:23:33.565Z,11.62
2022-08-07T03:24:30.763Z,11.56
2022-08-07T03:25:32.505Z,11.59
2022-08-07T03:26:30.660Z,11.65
2022-08-07T03:27:41.930Z,11.72
2022-08-07T03:28:37.217Z,11.75
2022-08-07T03:29:30.613Z,11.78
2022-08-07T03:30:29.610Z,11.80
2022-08-07T03:31:42.343Z,11.80
2022-08-07T03:32:30.584Z,11.78
2022-08-07T03:33:32.133Z,11.74
2022-08-07T03:34:30.552Z,11.67
2022-08-07T03:35:43.937Z,11.54
2022-08-07T03:36:30.528Z,11.47
2022-08-07T03:37:32.408Z,11.43
2022-08-07T03:38:33.155Z,11.47
2022-08-07T03:40:00.002Z,11.54
2022-08-07T03:40:31.080Z,11.65
2022-08-07T03:41:42.261Z,11.71
2022-08-07T03:42:30.449Z,11.78
2022-08-07T03:43:32.223Z,11.82
2022-08-07T03:44:34.268Z,11.87
2022-08-07T03:45:31.505Z,11.89
2022-08-07T03:46:29.412Z,11.89
2022-08-07T03:47:45.026Z,11.86
2022-08-07T03:48:30.380Z,11.80
2022-08-07T03:49:29.364Z,11.77
2022-08-07T03:50:29.345Z,11.80
2022-08-07T03:51:30.770Z,11.78
2022-08-07T03:52:29.334Z,11.78
2022-08-07T03:53:30.306Z,11.74
2022-08-07T03:54:36.538Z,11.68
2022-08-07T03:55:58.027Z,11.56
2022-08-07T03:56:33.073Z,11.46
2022-08-07T03:58:34.023Z,11.39
2022-08-07T03:59:07.202Z,11.39
2022-08-07T03:59:30.228Z,11.44
2022-08-07T04:00:33.462Z,11.49
2022-08-07T04:01:29.255Z,11.53
2022-08-07T04:02:29.190Z,11.61
2022-08-07T04:03:29.168Z,11.68
2022-08-07T04:04:32.800Z,11.75
2022-08-07T04:05:40.578Z,11.77
2022-08-07T04:06:36.298Z,11.77
2022-08-07T04:07:36.241Z,11.72
2022-08-07T04:08:30.123Z,11.71
2022-08-07T04:09:44.489Z,11.71
2022-08-07T04:10:30.082Z,11.70
2022-08-07T04:12:21.174Z,11.70
2022-08-07T04:12:30.067Z,11.68
2022-08-07T04:13:29.053Z,11.67
2022-08-07T04:14:39.026Z,11.67
2022-08-07T04:15:30.012Z,11.68
2022-08-07T04:16:31.274Z,11.72
2022-08-07T04:18:32.045Z,11.75
2022-08-07T04:18:56.471Z,11.78
2022-08-07T04:19:50.920Z,11.80
2022-08-07T04:20:30.716Z,11.77
2022-08-07T04:21:31.814Z,11.75
2022-08-07T04:22:30.067Z,11.74
2022-08-07T04:23:43.002Z,11.75
2022-08-07T04:24:33.628Z,11.75
2022-08-07T04:25:29.112Z,11.80
2022-08-07T04:26:28.872Z,11.82
2022-08-07T04:27:28.859Z,11.78
2022-08-07T04:28:29.873Z,11.70
2022-08-07T04:29:30.370Z,11.59
2022-08-07T04:30:40.207Z,11.50
2022-08-07T04:32:02.588Z,11.43
2022-08-07T04:32:34.396Z,11.41
2022-08-07T04:33:29.783Z,11.38
2022-08-07T04:34:33.185Z,11.38
2022-08-07T04:35:35.410Z,11.39
2022-08-07T04:36:29.740Z,11.41
2022-08-07T04:37:28.817Z,11.44
2022-08-07T04:38:28.788Z,11.52
2022-08-07T04:39:28.731Z,11.59
2022-08-07T04:40:32.336Z,11.65
2022-08-07T04:41:28.671Z,11.68
2022-08-07T04:42:29.664Z,11.70
2022-08-07T04:44:13.231Z,11.70
2022-08-07T04:44:29.683Z,11.68
2022-08-07T04:45:57.591Z,11.67
2022-08-07T04:46:34.702Z,11.70
2022-08-07T04:47:57.339Z,11.74
2022-08-07T04:48:29.614Z,11.78
2022-08-07T04:49:28.574Z,11.87
2022-08-07T04:50:29.553Z,11.94
2022-08-07T04:51:28.533Z,11.97
2022-08-07T04:52:28.522Z,12.06
2022-08-07T04:54:01.992Z,12.12
2022-08-07T04:54:30.088Z,12.20
2022-08-07T04:58:11.027Z,12.27
2022-08-07T04:58:11.837Z,12.24
2022-08-07T04:58:13.160Z,12.30
2022-08-07T04:58:42.320Z,12.31
2022-08-07T05:00:11.990Z,12.33
2022-08-07T05:00:30.962Z,12.34
2022-08-07T05:01:30.235Z,12.42
2022-08-07T05:02:28.393Z,12.45
2022-08-07T05:03:59.637Z,12.48
2022-08-07T05:04:29.371Z,12.51
2022-08-07T05:05:53.372Z,12.54
2022-08-07T05:06:29.364Z,12.56
2022-08-07T05:07:36.662Z,12.59
2022-08-07T05:08:58.936Z,12.66
2022-08-07T05:09:46.181Z,12.74
2022-08-07T05:10:29.295Z,12.81
2022-08-07T05:11:58.643Z,12.87
2022-08-07T05:12:30.545Z,12.96
2022-08-07T05:14:52.666Z,13.07
2022-08-07T05:14:53.824Z,13.03
2022-08-07T05:15:29.222Z,13.12
2022-08-07T05:16:28.212Z,13.18
2022-08-07T05:17:50.860Z,13.24
2022-08-07T05:18:29.601Z,13.37
2022-08-07T05:19:44.263Z,13.54
2022-08-07T05:20:29.164Z,13.69
2022-08-07T05:22:00.857Z,13.83
2022-08-07T05:22:29.146Z,13.94
2022-08-07T05:23:30.042Z,14.02
2022-08-07T05:24:30.408Z,14.10
2022-08-07T05:25:54.572Z,14.17
2022-08-07T05:26:29.086Z,14.27
2022-08-07T05:28:03.575Z,14.37
2022-08-07T05:28:29.360Z,14.44
2022-08-07T05:29:39.118Z,14.52
2022-08-07T05:30:32.638Z,14.60
2022-08-07T05:31:35.246Z,14.67
2022-08-07T05:32:29.006Z,14.74
2022-08-07T05:33:27.995Z,14.83
2022-08-07T05:34:27.995Z,14.91
2022-08-07T05:35:33.345Z,14.99
2022-08-07T05:36:30.518Z,15.05
2022-08-07T05:37:28.059Z,15.11
2022-08-07T05:38:58.400Z,15.19
2022-08-07T05:40:06.551Z,15.24
2022-08-07T05:40:28.981Z,15.30
2022-08-07T05:42:00.457Z,15.36
2022-08-07T05:42:34.715Z,15.39
2022-08-07T05:44:01.128Z,15.41
2022-08-07T05:44:29.563Z,15.43
2022-08-07T05:45:46.525Z,15.48
2022-08-07T05:46:29.426Z,15.51
2022-08-07T05:47:38.226Z,15.54
2022-08-07T05:48:28.797Z,15.59
2022-08-07T05:49:27.767Z,15.61
2022-08-07T05:50:28.769Z,15.64
2022-08-07T05:51:31.452Z,15.70
2022-08-07T05:52:32.580Z,15.74
2022-08-07T05:54:13.382Z,15.76
2022-08-07T05:54:31.289Z,15.82
2022-08-07T05:56:03.680Z,15.86
2022-08-07T05:56:30.179Z,15.93
2022-08-07T05:57:30.245Z,15.99
2022-08-07T05:58:36.343Z,16.03
2022-08-07T05:59:28.649Z,16.07
2022-08-07T06:00:28.638Z,16.12
2022-08-07T06:01:34.753Z,16.18
2022-08-07T06:02:29.595Z,16.26
2022-08-07T06:03:27.605Z,16.33
2022-08-07T06:04:30.322Z,16.38
2022-08-07T06:05:28.284Z,16.42
2022-08-07T06:06:29.384Z,16.45
2022-08-07T06:08:13.499Z,16.50
2022-08-07T06:08:30.865Z,16.55
2022-08-07T06:09:44.865Z,16.59
2022-08-07T06:10:28.534Z,16.65
2022-08-07T06:11:27.490Z,16.70
2022-08-07T06:12:27.973Z,16.74
2022-08-07T06:14:10.941Z,16.75
2022-08-07T06:14:28.832Z,16.83
2022-08-07T06:15:42.428Z,16.85
2022-08-07T06:16:29.286Z,16.90
2022-08-07T06:17:32.135Z,16.96
2022-08-07T06:18:28.419Z,17.03
2022-08-07T06:19:57.573Z,17.07
2022-08-07T06:20:49.465Z,17.13
2022-08-07T06:22:14.392Z,17.17
2022-08-07T06:22:28.559Z,17.22
2022-08-07T06:24:37.691Z,17.26
2022-08-07T06:24:53.033Z,17.33
2022-08-07T06:25:28.310Z,17.40
2022-08-07T06:26:28.289Z,17.44
2022-08-07T06:28:00.305Z,17.46
2022-08-07T06:28:28.653Z,17.48
2022-08-07T06:29:27.255Z,17.54
2022-08-07T06:30:35.648Z,17.62
2022-08-07T06:31:46.995Z,17.64
2022-08-07T06:32:29.322Z,17.71
2022-08-07T06:33:27.207Z,17.74
2022-08-07T06:34:28.058Z,17.82
2022-08-07T06:35:30.517Z,17.87
2022-08-07T06:36:35.224Z,17.92
2022-08-07T06:37:43.603Z,17.94
2022-08-07T06:38:28.501Z,18.02
2022-08-07T06:40:13.411Z,18.06
2022-08-07T06:40:34.045Z,18.10
2022-08-07T06:42:00.372Z,18.17
2022-08-07T06:42:35.050Z,18.22
2022-08-07T06:43:28.073Z,18.27
2022-08-07T06:44:30.998Z,18.31
2022-08-07T06:45:28.081Z,18.37
2022-08-07T06:46:35.045Z,18.43
2022-08-07T06:47:28.137Z,18.47
2022-08-07T06:48:28.023Z,18.50
2022-08-07T06:49:26.995Z,18.52
2022-08-07T06:50:26.973Z,18.54
2022-08-07T06:51:33.047Z,18.57
2022-08-07T06:52:31.384Z,18.62
2022-08-07T06:54:11.703Z,18.68
2022-08-07T06:55:33.772Z,18.72
2022-08-07T06:55:53.365Z,18.77
2022-08-07T06:56:27.893Z,18.83
2022-08-07T06:57:39.843Z,18.90
2022-08-07T06:58:28.873Z,18.94
2022-08-07T07:00:12.664Z,18.97
2022-08-07T07:00:27.865Z,18.99
2022-08-07T07:01:26.905Z,19.02
2022-08-07T07:02:49.266Z,19.08
2022-08-07T07:03:47.564Z,19.11
2022-08-07T07:04:33.345Z,19.15
2022-08-07T07:06:03.845Z,19.20
2022-08-07T07:06:27.765Z,19.28
2022-08-07T07:07:59.922Z,19.35
2022-08-07T07:08:27.982Z,19.38
2022-08-07T07:09:26.723Z,19.42
2022-08-07T07:10:26.735Z,19.47
2022-08-07T07:12:07.403Z,19.53
2022-08-07T07:12:31.268Z,19.55
2022-08-07T07:13:55.723Z,19.58
2022-08-07T07:14:27.655Z,19.61
2022-08-07T07:15:35.877Z,19.65
2022-08-07T07:16:30.528Z,19.72
2022-08-07T07:17:38.679Z,19.73
2022-08-07T07:18:47.242Z,19.75
2022-08-07T07:19:56.619Z,19.78
2022-08-07T07:20:27.584Z,19.83
2022-08-07T07:21:27.335Z,19.88
2022-08-07T07:22:37.025Z,19.94
2022-08-07T07:24:09.457Z,20.00
2022-08-07T07:24:27.519Z,19.98
2022-08-07T07:26:32.591Z,20.00
2022-08-07T07:26:33.836Z,20.05
2022-08-07T07:27:27.801Z,20.06
2022-08-07T07:28:42.250Z,20.09
2022-08-07T07:29:57.172Z,20.12
2022-08-07T07:30:37.920Z,20.15
2022-08-07T07:31:30.424Z,20.21
2022-08-07T07:32:27.446Z,20.23
2022-08-07T07:33:26.408Z,20.25
2022-08-07T07:34:31.022Z,20.27
2022-08-07T07:35:27.379Z,20.25
2022-08-07T07:36:32.215Z,20.34
2022-08-07T07:37:45.133Z,20.42
2022-08-07T07:38:27.429Z,20.47
2022-08-07T07:39:26.380Z,20.53
2022-08-07T07:40:27.324Z,20.51
2022-08-07T07:41:30.994Z,20.53
2022-08-07T07:42:33.497Z,20.58
2022-08-07T07:43:27.487Z,20.61
2022-08-07T07:44:27.271Z,20.61
2022-08-07T07:46:36.665Z,20.68
2022-08-07T07:46:40.537Z,20.64
2022-08-07T07:47:27.257Z,20.71
2022-08-07T07:48:35.967Z,20.72
2022-08-07T07:50:32.444Z,20.72
2022-08-07T07:50:33.755Z,20.71
2022-08-07T07:51:27.178Z,20.76
2022-08-07T07:52:26.260Z,20.83
2022-08-07T07:53:26.160Z,20.87
2022-08-07T07:54:26.208Z,20.95
2022-08-07T07:55:26.148Z,21.01
2022-08-07T07:56:29.678Z,21.06
2022-08-07T07:57:50.331Z,21.11
2022-08-07T07:58:27.394Z,21.08
2022-08-07T07:59:52.356Z,21.04
2022-08-07T08:00:29.620Z,20.95
2022-08-07T08:02:01.706Z,20.86
2022-08-07T08:02:35.347Z,20.68
2022-08-07T08:04:09.344Z,20.62
2022-08-07T08:04:27.514Z,20.62
2022-08-07T08:05:42.676Z,20.68
2022-08-07T08:06:26.989Z,20.77
2022-08-07T08:07:35.837Z,20.84
2022-08-07T08:08:34.328Z,20.86
2022-08-07T08:09:29.534Z,20.81
2022-08-07T08:10:37.635Z,20.83
2022-08-07T08:11:59.937Z,20.84
2022-08-07T08:12:51.168Z,20.74
2022-08-07T08:13:33.413Z,20.80
2022-08-07T08:14:26.872Z,20.87
2022-08-07T08:15:25.882Z,20.93
2022-08-07T08:16:25.889Z,20.99
2022-08-07T08:18:26.835Z,21.14
2022-08-07T08:18:36.585Z,21.06
2022-08-07T08:20:18.750Z,21.24
2022-08-07T08:20:31.822Z,21.19
2022-08-07T08:21:26.796Z,21.01
2022-08-07T08:22:32.554Z,21.06
2022-08-07T08:23:28.000Z,21.09
2022-08-07T08:24:44.950Z,21.02
2022-08-07T08:25:41.987Z,21.06
2022-08-07T08:26:26.733Z,21.08
2022-08-07T08:27:25.708Z,21.06
2022-08-07T08:28:38.656Z,21.04
2022-08-07T08:29:26.674Z,21.04
2022-08-07T08:30:25.752Z,21.13
2022-08-07T08:31:30.025Z,21.17
2022-08-07T08:32:38.664Z,21.24
2022-08-07T08:33:28.913Z,21.23
2022-08-07T08:34:28.953Z,21.30
2022-08-07T08:35:28.888Z,21.35
2022-08-07T08:36:29.455Z,21.35
2022-08-07T08:38:01.795Z,21.42
2022-08-07T08:38:29.933Z,21.50
2022-08-07T08:39:39.417Z,21.56
2022-08-07T08:40:28.779Z,21.64
2022-08-07T08:41:25.516Z,21.74
2022-08-07T08:42:26.531Z,21.81
2022-08-07T08:43:32.164Z,21.82
2022-08-07T08:44:29.677Z,21.61
2022-08-07T08:45:26.734Z,21.61
2022-08-07T08:46:26.457Z,21.66
2022-08-07T08:47:25.446Z,21.61
2022-08-07T08:48:28.387Z,21.66
2022-08-07T08:49:32.938Z,21.75
2022-08-07T08:50:35.025Z,21.83
2022-08-07T08:51:49.292Z,21.92
2022-08-07T08:52:30.311Z,22.04
2022-08-07T08:53:26.380Z,22.13
2022-08-07T08:54:25.360Z,22.23
2022-08-07T08:55:55.238Z,22.25
2022-08-07T08:56:26.383Z,22.28
2022-08-07T08:57:25.343Z,22.31
2022-08-07T08:58:28.971Z,22.35
2022-08-07T08:59:25.297Z,22.37
2022-08-07T09:00:28.733Z,22.41
2022-08-07T09:01:29.994Z,22.44
2022-08-07T09:02:35.002Z,22.22
2022-08-07T09:03:48.085Z,22.22
2022-08-07T09:04:28.791Z,22.28
2022-08-07T09:05:36.664Z,22.38
2022-08-07T09:06:26.211Z,22.43
2022-08-07T09:07:25.379Z,22.39
2022-08-07T09:08:28.528Z,22.35
2022-08-07T09:09:29.920Z,22.32
2022-08-07T09:10:26.151Z,22.23
2022-08-07T09:11:43.539Z,22.20
2022-08-07T09:12:30.617Z,22.20
2022-08-07T09:13:37.969Z,22.22
2022-08-07T09:14:27.474Z,22.32
2022-08-07T09:16:25.763Z,22.39
2022-08-07T09:16:29.641Z,22.37
2022-08-07T09:17:25.073Z,22.32
2022-08-07T09:18:26.130Z,22.32
2022-08-07T09:19:51.322Z,22.37
2022-08-07T09:20:35.520Z,22.43
2022-08-07T09:21:57.974Z,22.46
2022-08-07T09:24:31.146Z,22.64
2022-08-07T09:24:34.138Z,22.59
2022-08-07T09:24:54.533Z,22.52
2022-08-07T09:25:25.950Z,22.68
2022-08-07T09:26:24.933Z,22.77
2022-08-07T09:27:24.923Z,22.86
2022-08-07T09:30:03.931Z,23.02
2022-08-07T09:30:05.359Z,22.93
2022-08-07T09:30:28.154Z,23.12
2022-08-07T09:31:24.876Z,23.19
2022-08-07T09:32:24.866Z,23.20
2022-08-07T09:33:53.290Z,23.11
2022-08-07T09:34:26.142Z,22.99
2022-08-07T09:36:04.342Z,22.75
2022-08-07T09:36:27.036Z,22.54
2022-08-07T09:37:47.864Z,22.65
2022-08-07T09:38:25.786Z,22.69
2022-08-07T09:39:54.017Z,22.68
2022-08-07T09:40:25.798Z,22.59
2022-08-07T09:41:24.737Z,22.38
2022-08-07T09:42:24.801Z,22.50
2022-08-07T09:43:40.515Z,22.60
2022-08-07T09:44:33.030Z,22.71
2022-08-07T09:47:51.623Z,23.04
2022-08-07T09:47:51.834Z,22.89
2022-08-07T09:48:00.441Z,23.14
2022-08-07T09:48:29.808Z,23.07
2022-08-07T09:50:01.530Z,22.97
2022-08-07T09:50:26.553Z,23.02
2022-08-07T09:52:16.788Z,23.15
2022-08-07T09:52:33.580Z,23.32
2022-08-07T09:53:25.591Z,23.45
2022-08-07T09:54:27.171Z,23.46
2022-08-07T09:55:36.930Z,23.38
2022-08-07T09:56:34.106Z,23.40
2022-08-07T09:57:25.540Z,23.45
2022-08-07T09:58:32.181Z,23.57
2022-08-07T09:59:29.498Z,23.71
2022-08-07T10:00:31.814Z,23.86
2022-08-07T10:01:51.246Z,23.98
2022-08-07T10:02:29.791Z,24.08
2022-08-07T10:04:06.797Z,24.10
2022-08-07T10:04:28.080Z,23.94
2022-08-07T10:05:59.787Z,23.83
2022-08-07T10:06:25.512Z,23.72
2022-08-07T10:07:26.160Z,23.75
2022-08-07T10:08:25.381Z,23.71
2022-08-07T10:09:42.731Z,23.64
2022-08-07T10:10:25.361Z,23.49
2022-08-07T10:12:02.101Z,23.38
2022-08-07T10:12:26.343Z,23.47
2022-08-07T10:13:54.654Z,23.53
2022-08-07T10:14:31.221Z,23.71
2022-08-07T10:15:25.319Z,23.64
2022-08-07T10:16:24.348Z,23.60
2022-08-07T10:17:24.325Z,23.60
2022-08-07T10:18:26.348Z,23.71
2022-08-07T10:19:24.244Z,23.85
2022-08-07T10:20:30.523Z,23.97
2022-08-07T10:22:16.281Z,24.00
2022-08-07T10:22:33.827Z,24.02
2022-08-07T10:24:06.777Z,24.04
2022-08-07T10:24:25.177Z,23.95
2022-08-07T10:25:24.167Z,23.70
2022-08-07T10:26:25.165Z,23.55
2022-08-07T10:27:24.375Z,23.38
2022-08-07T10:28:25.309Z,23.31
2022-08-07T10:29:24.115Z,23.20
2022-08-07T10:30:25.109Z,23.19
2022-08-07T10:31:24.106Z,23.27
2022-08-07T10:32:37.135Z,23.50
2022-08-07T10:34:05.084Z,23.64
2022-08-07T10:34:27.039Z,23.76
2022-08-07T10:35:25.547Z,23.60
2022-08-07T10:36:29.595Z,23.45
2022-08-07T10:37:48.369Z,23.24
2022-08-07T10:38:35.889Z,23.24
2022-08-07T10:39:25.609Z,23.14
2022-08-07T10:40:30.283Z,23.20
2022-08-07T10:41:47.290Z,23.42
2022-08-07T10:42:31.353Z,23.68
2022-08-07T10:43:34.105Z,23.95
2022-08-07T10:44:28.853Z,24.19
2022-08-07T10:45:37.958Z,24.38
2022-08-07T10:46:24.889Z,24.38
2022-08-07T10:47:26.795Z,24.08
2022-08-07T10:48:24.858Z,24.14
2022-08-07T10:49:49.458Z,24.19
2022-08-07T10:50:25.934Z,24.35
2022-08-07T10:51:39.291Z,24.31
2022-08-07T10:52:31.910Z,24.37
2022-08-07T10:53:24.788Z,24.50
2022-08-07T10:54:23.788Z,24.56
2022-08-07T10:55:36.876Z,24.50
2022-08-07T10:56:31.468Z,24.69
2022-08-07T10:57:34.844Z,24.83
2022-08-07T10:58:32.057Z,25.07
2022-08-07T10:59:24.742Z,25.06
2022-08-07T11:00:39.227Z,25.12
2022-08-07T11:01:24.780Z,25.27
2022-08-07T11:02:33.292Z,25.42
2022-08-07T11:03:28.163Z,25.52
2022-08-07T11:04:32.313Z,25.67
2022-08-07T11:05:24.633Z,25.79
2022-08-07T11:06:26.832Z,25.91
2022-08-07T11:07:56.220Z,26.04
2022-08-07T11:08:30.205Z,26.09
2022-08-07T11:10:08.894Z,26.17
2022-08-07T11:10:27.487Z,26.28
2022-08-07T11:11:23.789Z,26.37
2022-08-07T11:12:31.801Z,26.58
2022-08-07T11:14:41.840Z,26.74
2022-08-07T11:14:44.577Z,26.87
2022-08-07T11:15:31.465Z,26.68
2022-08-07T11:16:25.587Z,26.67
2022-08-07T11:17:43.252Z,26.77
2022-08-07T11:18:24.543Z,26.55
2022-08-07T11:19:27.392Z,26.64
2022-08-07T11:20:24.509Z,26.29
2022-08-07T11:21:23.425Z,25.98
2022-08-07T11:22:32.229Z,25.46
2022-08-07T11:23:30.857Z,25.15
2022-08-07T11:24:24.436Z,25.15
2022-08-07T11:25:23.399Z,25.06
2022-08-07T11:26:23.369Z,24.91
2022-08-07T11:28:00.895Z,24.97
2022-08-07T11:28:24.841Z,25.15
2022-08-07T11:29:41.022Z,25.28
2022-08-07T11:30:41.805Z,25.30
2022-08-07T11:31:24.296Z,25.49
2022-08-07T11:32:25.933Z,25.54
2022-08-07T11:33:54.066Z,25.65
2022-08-07T11:34:24.256Z,25.93
2022-08-07T11:35:26.879Z,26.28
2022-08-07T11:36:25.477Z,26.64
2022-08-07T11:37:24.454Z,26.80
2022-08-07T11:38:26.111Z,26.77
2022-08-07T11:39:23.371Z,26.86
2022-08-07T11:40:23.408Z,26.62
2022-08-07T11:41:29.641Z,26.44
2022-08-07T11:42:29.929Z,26.52
2022-08-07T11:43:29.499Z,26.39
2022-08-07T11:44:24.128Z,26.29
2022-08-07T11:45:23.797Z,26.27
2022-08-07T11:46:24.109Z,25.84
2022-08-07T11:47:23.110Z,25.47
2022-08-07T11:48:29.866Z,25.52
2022-08-07T11:49:51.227Z,25.43
2022-08-07T11:50:32.353Z,25.42
2022-08-07T11:51:41.318Z,25.65
2022-08-07T11:52:28.989Z,25.86
2022-08-07T11:53:25.403Z,25.61
2022-08-07T11:54:25.397Z,25.80
2022-08-07T11:56:09.481Z,25.79
2022-08-07T11:56:26.950Z,25.56
2022-08-07T11:57:57.997Z,25.28
2022-08-07T11:58:33.527Z,25.28
2022-08-07T12:00:10.940Z,25.37
2022-08-07T12:00:28.319Z,25.43
2022-08-07T12:01:22.930Z,25.53
2022-08-07T12:02:30.760Z,25.52
2022-08-07T12:03:42.165Z,25.59
2022-08-07T12:04:23.901Z,25.89
2022-08-07T12:05:41.202Z,26.18
2022-08-07T12:06:38.955Z,26.18
2022-08-07T12:07:27.043Z,26.25
2022-08-07T12:08:31.818Z,26.54
2022-08-07T12:09:23.958Z,26.77
2022-08-07T12:10:23.244Z,26.76
2022-08-07T12:11:22.907Z,26.59
2022-08-07T12:12:22.776Z,26.50
2022-08-07T12:13:35.475Z,26.50
2022-08-07T12:14:23.755Z,26.39
2022-08-07T12:15:58.010Z,26.24
2022-08-07T12:16:30.498Z,26.35
2022-08-07T12:17:23.728Z,26.57
2022-08-07T12:18:29.755Z,26.77
2022-08-07T12:19:23.666Z,26.91
2022-08-07T12:20:30.221Z,27.16
2022-08-07T12:21:55.773Z,27.41
2022-08-07T12:22:38.779Z,27.50
2022-08-07T12:24:04.762Z,27.47
2022-08-07T12:24:38.382Z,27.54
2022-08-07T12:26:02.777Z,27.38
2022-08-07T12:26:29.890Z,27.19
2022-08-07T12:27:28.068Z,27.19
2022-08-07T12:28:30.897Z,27.19
2022-08-07T12:29:37.645Z,26.95
2022-08-07T12:30:23.625Z,26.62
2022-08-07T12:31:23.630Z,26.57
2022-08-07T12:32:22.517Z,26.65
2022-08-07T12:33:28.064Z,26.79
2022-08-07T12:34:23.540Z,26.94
2022-08-07T12:35:24.039Z,27.06
2022-08-07T12:36:33.155Z,27.21
2022-08-07T12:37:28.209Z,27.26
2022-08-07T12:38:30.574Z,27.50
2022-08-07T12:39:44.121Z,27.51
2022-08-07T12:40:46.538Z,27.53
2022-08-07T12:41:23.430Z,27.57
2022-08-07T12:42:23.393Z,27.21
2022-08-07T12:44:02.136Z,26.79
2022-08-07T12:44:23.353Z,26.36
2022-08-07T12:45:22.982Z,26.37
2022-08-07T12:46:26.390Z,26.43
2022-08-07T12:47:27.094Z,26.42
2022-08-07T12:48:28.215Z,26.36
2022-08-07T12:49:39.680Z,26.31
2022-08-07T12:50:38.420Z,26.37
2022-08-07T12:51:23.285Z,26.57
2022-08-07T12:52:23.254Z,26.94
2022-08-07T12:53:22.552Z,26.99
2022-08-07T12:54:36.962Z,27.09
2022-08-07T12:55:24.815Z,27.10